This is the latest recevied weather packets stored in our database for station/object KJ4UBX-11. If no packets are shown the sender has not sent any weather packets the latest 10 day(s).
| Time | Temp. | Humidity | Pressure | Rain* | Wind** | Luminosity | Snow |
|---|---|---|---|---|---|---|---|
| 1777904397 | 28.89° C | 27% | 1005.5 hPa | - | - | - | - |
| 1777903812 | 28.33° C | 27% | 1005.8 hPa | - | - | - | - |
| 1777903232 | 30.56° C | 25% | 1005.9 hPa | - | - | - | - |
| 1777902643 | 28.33° C | 29% | 1006 hPa | - | - | - | - |
| 1777902048 | 24.44° C | 34% | 1006.4 hPa | - | - | - | - |
| 1777901465 | 23.89° C | 33% | 1006.4 hPa | - | - | - | - |
| 1777900887 | 25° C | 33% | 1006.5 hPa | - | - | - | - |
| 1777900301 | 25.56° C | 32% | 1006.5 hPa | - | - | - | - |
| 1777899723 | 27.78° C | 28% | 1006.6 hPa | - | - | - | - |
| 1777899136 | 27.22° C | 30% | 1006.7 hPa | - | - | - | - |
| 1777898544 | 23.33° C | 32% | 1006.8 hPa | - | - | - | - |
| 1777897957 | 22.22° C | 35% | 1007 hPa | - | - | - | - |
| 1777897377 | 25.56° C | 30% | 1007.1 hPa | - | - | - | - |
| 1777896792 | 25.56° C | 32% | 1007.2 hPa | - | - | - | - |
| 1777896201 | 21.67° C | 34% | 1007.2 hPa | - | - | - | - |
| 1777895614 | 18.89° C | 38% | 1007.3 hPa | - | - | - | - |
| 1777895029 | 16.67° C | 41% | 1007.1 hPa | - | - | - | - |
| 1777894445 | 16.67° C | 39% | 1007.1 hPa | - | - | - | - |
| 1777893862 | 16.67° C | 39% | 1007 hPa | - | - | - | - |
| 1777893276 | 15° C | 42% | 1006.9 hPa | - | - | - | - |
| 1777892690 | 13.33° C | 46% | 1007.1 hPa | - | - | - | - |
| 1777892105 | 12.78° C | 47% | 1007.2 hPa | - | - | - | - |
| 1777891522 | 12.78° C | 47% | 1007.2 hPa | - | - | - | - |
| 1777890935 | 11.11° C | 49% | 1007.1 hPa | - | - | - | - |
| 1777890351 | 10.56° C | 50% | 1007 hPa | - | - | - | - |
* Rain since midnight (hover to see other rain measurements)
** Current wind speed in m/s (hover to see current wind gust speed)